createdAt,value
2019-04-27T00:00:32.767Z,88
2019-04-27T00:01:31.638Z,88
2019-04-27T00:02:33.266Z,88
2019-04-27T00:03:34.941Z,88
2019-04-27T00:04:32.834Z,88
2019-04-27T00:05:33.637Z,88
2019-04-27T00:06:33.659Z,88
2019-04-27T00:07:39.315Z,88
2019-04-27T00:08:33.339Z,88
2019-04-27T00:09:31.957Z,88
2019-04-27T00:10:33.407Z,88
2019-04-27T00:11:33.179Z,88
2019-04-27T00:12:33.092Z,88
2019-04-27T00:13:34.709Z,87
2019-04-27T00:14:32.910Z,87
2019-04-27T00:15:34.377Z,88
2019-04-27T00:16:33.671Z,88
2019-04-27T00:17:45.136Z,88
2019-04-27T00:18:33.844Z,87
2019-04-27T00:19:35.314Z,87
2019-04-27T00:20:33.211Z,87
2019-04-27T00:21:32.802Z,87
2019-04-27T00:22:33.429Z,88
2019-04-27T00:23:33.963Z,88
2019-04-27T00:24:33.510Z,89
2019-04-27T00:25:32.836Z,89
2019-04-27T00:26:33.404Z,89
2019-04-27T00:27:33.471Z,89
2019-04-27T00:28:33.175Z,89
2019-04-27T00:29:33.147Z,90
2019-04-27T00:30:33.330Z,90
2019-04-27T00:31:33.625Z,89
2019-04-27T00:32:33.193Z,88
2019-04-27T00:33:33.892Z,87
2019-04-27T00:34:33.953Z,87
2019-04-27T00:35:33.514Z,87
2019-04-27T00:36:32.859Z,87
2019-04-27T00:37:33.977Z,87
2019-04-27T00:38:33.420Z,87
2019-04-27T00:39:33.048Z,87
2019-04-27T00:40:33.510Z,86
2019-04-27T00:41:33.962Z,86
2019-04-27T00:42:33.306Z,86
2019-04-27T00:43:32.905Z,86
2019-04-27T00:44:33.842Z,87
2019-04-27T00:45:33.499Z,87
2019-04-27T00:46:33.097Z,88
2019-04-27T00:47:34.887Z,89
2019-04-27T00:48:33.316Z,88
2019-04-27T00:49:32.995Z,88
2019-04-27T00:50:33.759Z,88
2019-04-27T00:51:33.313Z,87
2019-04-27T00:52:34.711Z,87
2019-04-27T00:53:33.487Z,86
2019-04-27T00:54:33.958Z,86
2019-04-27T00:55:33.345Z,87
2019-04-27T00:56:33.819Z,87
2019-04-27T00:57:33.227Z,87
2019-04-27T00:58:33.072Z,88
2019-04-27T00:59:33.103Z,88
2019-04-27T01:00:33.698Z,88
2019-04-27T01:01:33.366Z,87
2019-04-27T01:02:33.159Z,87
2019-04-27T01:03:33.260Z,87
2019-04-27T01:04:33.978Z,87
2019-04-27T01:05:33.727Z,87
2019-04-27T01:06:33.645Z,87
2019-04-27T01:07:35.801Z,87
2019-04-27T01:08:34.231Z,88
2019-04-27T01:09:33.855Z,88
2019-04-27T01:10:33.555Z,87
2019-04-27T01:11:33.482Z,87
2019-04-27T01:12:33.509Z,88
2019-04-27T01:13:34.968Z,88
2019-04-27T01:14:34.229Z,88
2019-04-27T01:15:34.026Z,87
2019-04-27T01:16:33.669Z,87
2019-04-27T01:17:33.724Z,88
2019-04-27T01:18:33.754Z,88
2019-04-27T01:19:33.809Z,88
2019-04-27T01:20:33.861Z,88
2019-04-27T01:21:33.933Z,89
2019-04-27T01:22:35.027Z,89
2019-04-27T01:23:34.041Z,89
2019-04-27T01:24:34.095Z,89
2019-04-27T01:25:34.138Z,88
2019-04-27T01:26:34.190Z,88
2019-04-27T01:27:34.244Z,88
2019-04-27T01:28:34.302Z,87
2019-04-27T01:29:34.342Z,87
2019-04-27T01:30:34.412Z,88
2019-04-27T01:31:34.454Z,87
2019-04-27T01:32:34.488Z,86
2019-04-27T01:33:34.529Z,87
2019-04-27T01:34:34.588Z,87
2019-04-27T01:35:34.632Z,87
2019-04-27T01:36:34.658Z,87
2019-04-27T01:37:34.721Z,87
2019-04-27T01:38:34.765Z,86
2019-04-27T01:39:34.867Z,86
2019-04-27T01:40:34.851Z,86
2019-04-27T01:41:34.913Z,87
2019-04-27T01:42:34.951Z,87
2019-04-27T01:43:34.992Z,86
2019-04-27T01:44:35.021Z,86
2019-04-27T01:45:35.097Z,86
2019-04-27T01:46:35.067Z,86
2019-04-27T01:47:35.119Z,86
2019-04-27T01:48:35.133Z,86
2019-04-27T01:49:35.211Z,86
2019-04-27T01:50:35.217Z,86
2019-04-27T01:51:35.269Z,87
2019-04-27T01:52:35.301Z,87
2019-04-27T01:53:35.340Z,86
2019-04-27T01:54:35.375Z,86
2019-04-27T01:55:35.384Z,86
2019-04-27T01:56:35.425Z,86
2019-04-27T01:57:35.495Z,86
2019-04-27T01:58:35.503Z,86
2019-04-27T01:59:35.554Z,86
2019-04-27T02:00:35.519Z,87
2019-04-27T02:01:35.545Z,87
2019-04-27T02:02:35.545Z,87
2019-04-27T02:03:35.545Z,88
2019-04-27T02:04:35.570Z,88
2019-04-27T02:05:35.599Z,87
2019-04-27T02:06:35.600Z,86
2019-04-27T02:07:35.730Z,86
2019-04-27T02:08:35.635Z,86
2019-04-27T02:09:35.662Z,86
2019-04-27T02:10:35.669Z,85
2019-04-27T02:11:35.697Z,85
2019-04-27T02:12:35.710Z,86
2019-04-27T02:13:35.738Z,85
2019-04-27T02:14:35.752Z,85
2019-04-27T02:15:35.761Z,85
2019-04-27T02:16:35.774Z,85
2019-04-27T02:17:35.801Z,86
2019-04-27T02:18:38.147Z,86
2019-04-27T02:19:36.007Z,86
2019-04-27T02:20:35.822Z,86
2019-04-27T02:21:35.832Z,86
2019-04-27T02:22:35.840Z,87
2019-04-27T02:23:35.853Z,87
2019-04-27T02:24:35.856Z,86
2019-04-27T02:25:35.878Z,85
2019-04-27T02:26:35.868Z,86
2019-04-27T02:27:35.904Z,86
2019-04-27T02:28:35.896Z,86
2019-04-27T02:29:35.878Z,86
2019-04-27T02:30:35.914Z,85
2019-04-27T02:31:35.899Z,85
2019-04-27T02:32:35.930Z,85
2019-04-27T02:33:35.907Z,85
2019-04-27T02:34:35.923Z,85
2019-04-27T02:35:36.002Z,86
2019-04-27T02:36:36.068Z,86
2019-04-27T02:37:36.115Z,86
2019-04-27T02:38:36.138Z,87
2019-04-27T02:39:36.186Z,86
2019-04-27T02:40:36.207Z,85
2019-04-27T02:41:36.285Z,85
2019-04-27T02:42:36.330Z,84
2019-04-27T02:43:36.379Z,84
2019-04-27T02:44:36.357Z,85
2019-04-27T02:45:36.429Z,86
2019-04-27T02:46:36.504Z,87
2019-04-27T02:47:36.500Z,87
2019-04-27T02:48:52.744Z,86
2019-04-27T02:49:36.596Z,86
2019-04-27T02:50:36.654Z,86
2019-04-27T02:51:36.625Z,85
2019-04-27T02:52:36.714Z,85
2019-04-27T02:53:36.736Z,84
2019-04-27T02:54:36.824Z,84
2019-04-27T02:55:39.342Z,85
2019-04-27T02:56:36.919Z,85
2019-04-27T02:57:36.957Z,85
2019-04-27T02:58:37.021Z,85
2019-04-27T02:59:39.606Z,86
2019-04-27T03:00:39.718Z,85
2019-04-27T03:01:37.162Z,86
2019-04-27T03:02:39.487Z,85
2019-04-27T03:03:37.268Z,85
2019-04-27T03:04:39.528Z,85
2019-04-27T03:05:39.577Z,85
2019-04-27T03:06:39.613Z,85
2019-04-27T03:07:37.405Z,86
2019-04-27T03:08:39.296Z,86
2019-04-27T03:09:39.474Z,86
2019-04-27T03:10:39.711Z,85
2019-04-27T03:11:39.501Z,85
2019-04-27T03:12:39.813Z,85
2019-04-27T03:13:37.698Z,86
2019-04-27T03:14:40.088Z,86
2019-04-27T03:15:40.150Z,85
2019-04-27T03:16:39.435Z,85
2019-04-27T03:17:39.505Z,85
2019-04-27T03:18:40.281Z,86
2019-04-27T03:19:39.763Z,86
2019-04-27T03:20:40.032Z,86
2019-04-27T03:21:39.548Z,86
2019-04-27T03:22:39.761Z,86
2019-04-27T03:23:38.087Z,87
2019-04-27T03:24:39.414Z,87
2019-04-27T03:25:40.026Z,86
2019-04-27T03:26:38.972Z,86
2019-04-27T03:27:40.453Z,87
2019-04-27T03:28:40.097Z,87
2019-04-27T03:29:38.941Z,87
2019-04-27T03:30:42.226Z,86
2019-04-27T03:31:42.383Z,86
2019-04-27T03:32:42.348Z,87
2019-04-27T03:33:42.591Z,87
2019-04-27T03:34:41.726Z,87
2019-04-27T03:35:42.629Z,87
2019-04-27T03:36:39.495Z,87
2019-04-27T03:37:40.319Z,87
2019-04-27T03:38:39.610Z,85
2019-04-27T03:39:39.632Z,85
2019-04-27T03:40:40.274Z,85
2019-04-27T03:41:40.895Z,86
2019-04-27T03:42:40.223Z,86
2019-04-27T03:43:40.175Z,86
2019-04-27T03:44:39.759Z,87
2019-04-27T03:45:39.900Z,87
2019-04-27T03:46:39.650Z,86
2019-04-27T03:47:40.573Z,86
2019-04-27T03:48:40.657Z,86
2019-04-27T03:49:41.478Z,86
2019-04-27T03:50:39.772Z,86
2019-04-27T03:51:40.179Z,86
2019-04-27T03:52:39.689Z,85
2019-04-27T03:53:39.599Z,84
2019-04-27T03:54:40.027Z,84
2019-04-27T03:55:39.684Z,84
2019-04-27T03:56:39.675Z,85
2019-04-27T03:57:40.174Z,85
2019-04-27T03:58:39.730Z,84
2019-04-27T03:59:40.514Z,85
2019-04-27T04:00:39.812Z,85
2019-04-27T04:01:39.683Z,86
2019-04-27T04:02:40.402Z,86
2019-04-27T04:03:39.480Z,86
2019-04-27T04:04:40.515Z,86
2019-04-27T04:05:39.769Z,86
2019-04-27T04:06:39.853Z,86
2019-04-27T04:07:40.143Z,86
2019-04-27T04:08:39.773Z,87
2019-04-27T04:09:40.121Z,87
2019-04-27T04:10:41.623Z,87
2019-04-27T04:11:39.618Z,87
2019-04-27T04:12:39.988Z,86
2019-04-27T04:13:39.823Z,86
2019-04-27T04:14:42.219Z,86
2019-04-27T04:15:39.901Z,86
2019-04-27T04:16:39.571Z,86
2019-04-27T04:17:40.184Z,85
2019-04-27T04:18:39.681Z,85
2019-04-27T04:19:48.713Z,85
2019-04-27T04:20:40.379Z,85
2019-04-27T04:21:40.119Z,86
2019-04-27T04:22:40.298Z,86
2019-04-27T04:23:40.201Z,86
2019-04-27T04:24:39.789Z,87
2019-04-27T04:25:40.863Z,88
2019-04-27T04:26:40.170Z,88
2019-04-27T04:27:40.049Z,88
2019-04-27T04:28:39.657Z,88
2019-04-27T04:29:39.658Z,88
2019-04-27T04:30:40.193Z,88
2019-04-27T04:31:40.330Z,88
2019-04-27T04:32:39.699Z,88
2019-04-27T04:33:40.244Z,88
2019-04-27T04:34:39.982Z,88
2019-04-27T04:35:39.983Z,88
2019-04-27T04:36:42.400Z,88
2019-04-27T04:37:39.721Z,87
2019-04-27T04:38:40.215Z,87
2019-04-27T04:39:40.422Z,87
2019-04-27T04:40:40.126Z,87
2019-04-27T04:41:40.496Z,87
2019-04-27T04:42:39.892Z,86
2019-04-27T04:43:40.092Z,86
2019-04-27T04:44:40.247Z,86
2019-04-27T04:45:39.997Z,87
2019-04-27T04:46:40.162Z,87
2019-04-27T04:47:40.796Z,88
2019-04-27T04:48:40.466Z,87
2019-04-27T04:49:40.225Z,87
2019-04-27T04:50:40.301Z,87
2019-04-27T04:51:40.367Z,87
2019-04-27T04:52:42.377Z,88
2019-04-27T04:53:40.713Z,88
2019-04-27T04:54:40.942Z,87
2019-04-27T04:55:40.434Z,87
2019-04-27T04:56:40.501Z,87
2019-04-27T04:57:40.546Z,87
2019-04-27T04:58:41.350Z,87
2019-04-27T04:59:43.590Z,87
2019-04-27T05:00:40.679Z,87
2019-04-27T05:01:40.738Z,88
2019-04-27T05:02:40.784Z,87
2019-04-27T05:03:40.843Z,87
2019-04-27T05:04:40.847Z,88
2019-04-27T05:05:41.338Z,88
2019-04-27T05:06:40.879Z,88
2019-04-27T05:07:40.913Z,88
2019-04-27T05:08:40.967Z,88
2019-04-27T05:09:41.011Z,87
2019-04-27T05:10:41.061Z,87
2019-04-27T05:11:41.091Z,87
2019-04-27T05:12:41.186Z,87
2019-04-27T05:13:41.198Z,87
2019-04-27T05:14:41.252Z,87
2019-04-27T05:15:41.283Z,87
2019-04-27T05:16:41.386Z,87
2019-04-27T05:17:41.374Z,87
2019-04-27T05:18:41.390Z,87
2019-04-27T05:19:41.419Z,87
2019-04-27T05:20:41.466Z,88
2019-04-27T05:21:41.515Z,88
2019-04-27T05:22:41.551Z,88
2019-04-27T05:23:41.606Z,88
2019-04-27T05:24:41.649Z,87
2019-04-27T05:25:41.687Z,87
2019-04-27T05:26:41.710Z,86
2019-04-27T05:27:41.731Z,86
2019-04-27T05:28:41.769Z,86
2019-04-27T05:29:41.831Z,86
2019-04-27T05:30:41.850Z,86
2019-04-27T05:31:41.917Z,86
2019-04-27T05:32:41.918Z,86
2019-04-27T05:33:41.967Z,85
2019-04-27T05:34:42.000Z,85
2019-04-27T05:35:42.044Z,85
2019-04-27T05:36:48.453Z,86
2019-04-27T05:37:44.312Z,87
2019-04-27T05:38:45.753Z,87
2019-04-27T05:39:42.192Z,88
2019-04-27T05:40:42.249Z,87
2019-04-27T05:41:42.251Z,87
2019-04-27T05:42:42.415Z,87
2019-04-27T05:43:42.303Z,87
2019-04-27T05:44:45.551Z,86
2019-04-27T05:45:42.370Z,86
2019-04-27T05:46:42.394Z,86
2019-04-27T05:47:43.263Z,86
2019-04-27T05:48:42.481Z,86
2019-04-27T05:49:44.356Z,85
2019-04-27T05:50:45.492Z,85
2019-04-27T05:51:42.494Z,85
2019-04-27T05:52:42.526Z,84
2019-04-27T05:53:42.536Z,85
2019-04-27T05:54:42.547Z,84
2019-04-27T05:55:42.562Z,83
2019-04-27T05:56:42.575Z,84
2019-04-27T05:57:42.631Z,85
2019-04-27T05:58:42.614Z,86
2019-04-27T05:59:42.634Z,85
2019-04-27T06:00:42.690Z,85
2019-04-27T06:01:42.656Z,84
2019-04-27T06:02:42.675Z,84
2019-04-27T06:03:42.713Z,85
2019-04-27T06:04:42.742Z,85
2019-04-27T06:05:42.725Z,85
2019-04-27T06:06:42.724Z,85
2019-04-27T06:07:42.783Z,85
2019-04-27T06:08:42.792Z,86
2019-04-27T06:09:42.780Z,84
2019-04-27T06:10:45.004Z,83
2019-04-27T06:11:42.761Z,83
2019-04-27T06:12:42.778Z,83
2019-04-27T06:13:42.782Z,84
2019-04-27T06:14:42.783Z,84
2019-04-27T06:15:42.799Z,84
2019-04-27T06:16:42.838Z,83
2019-04-27T06:17:42.953Z,84
2019-04-27T06:18:42.971Z,84
2019-04-27T06:19:43.907Z,82
2019-04-27T06:20:53.163Z,82
2019-04-27T06:21:43.160Z,83
2019-04-27T06:22:43.327Z,83
2019-04-27T06:23:43.276Z,84
2019-04-27T06:24:43.335Z,84
2019-04-27T06:25:43.343Z,83
2019-04-27T06:26:43.434Z,83
2019-04-27T06:27:43.489Z,84
2019-04-27T06:28:43.543Z,84
2019-04-27T06:29:43.544Z,82
2019-04-27T06:30:43.555Z,82
2019-04-27T06:31:43.554Z,82
2019-04-27T06:32:43.634Z,83
2019-04-27T06:33:43.681Z,83
2019-04-27T06:34:43.724Z,84
2019-04-27T06:35:43.761Z,83
2019-04-27T06:36:43.846Z,83
2019-04-27T06:37:43.896Z,84
2019-04-27T06:38:43.937Z,83
2019-04-27T06:39:43.986Z,82
2019-04-27T06:40:43.975Z,81
2019-04-27T06:41:44.019Z,82
2019-04-27T06:42:44.065Z,81
2019-04-27T06:43:44.119Z,80
2019-04-27T06:44:44.141Z,80
2019-04-27T06:45:44.182Z,80
2019-04-27T06:46:44.208Z,81
2019-04-27T06:47:44.259Z,82
2019-04-27T06:48:44.308Z,84
2019-04-27T06:49:44.362Z,83
2019-04-27T06:50:44.399Z,81
2019-04-27T06:51:44.481Z,81
2019-04-27T06:52:44.521Z,81
2019-04-27T06:53:44.659Z,81
2019-04-27T06:54:44.615Z,81
2019-04-27T06:55:44.663Z,81
2019-04-27T06:56:44.703Z,81
2019-04-27T06:57:44.695Z,81
2019-04-27T06:58:44.739Z,82
2019-04-27T06:59:44.763Z,81
2019-04-27T07:00:44.792Z,79
2019-04-27T07:01:44.831Z,79
2019-04-27T07:02:44.962Z,79
2019-04-27T07:03:44.927Z,79
2019-04-27T07:04:44.952Z,80
2019-04-27T07:05:45.024Z,81
2019-04-27T07:06:53.136Z,82
2019-04-27T07:07:45.089Z,82
2019-04-27T07:08:45.167Z,82
2019-04-27T07:09:45.128Z,79
2019-04-27T07:10:45.143Z,78
2019-04-27T07:11:45.181Z,78
2019-04-27T07:12:45.221Z,78
2019-04-27T07:13:45.252Z,77
2019-04-27T07:14:52.739Z,78
2019-04-27T07:15:45.327Z,78
2019-04-27T07:16:45.359Z,79
2019-04-27T07:17:45.398Z,78
2019-04-27T07:18:45.434Z,77
2019-04-27T07:19:45.478Z,77
2019-04-27T07:20:45.496Z,77
2019-04-27T07:21:45.529Z,77
2019-04-27T07:22:45.561Z,76
2019-04-27T07:23:45.600Z,76
2019-04-27T07:24:45.615Z,76
2019-04-27T07:25:45.655Z,77
2019-04-27T07:26:45.652Z,78
2019-04-27T07:27:45.697Z,78
2019-04-27T07:28:45.691Z,77
2019-04-27T07:29:45.708Z,77
2019-04-27T07:30:45.712Z,77
2019-04-27T07:31:45.731Z,77
2019-04-27T07:32:45.762Z,77
2019-04-27T07:33:45.773Z,77
2019-04-27T07:34:45.765Z,78
2019-04-27T07:35:45.794Z,77
2019-04-27T07:36:45.830Z,77
2019-04-27T07:37:45.850Z,77
2019-04-27T07:38:45.849Z,77
2019-04-27T07:39:45.877Z,78
2019-04-27T07:40:45.891Z,78
2019-04-27T07:41:45.907Z,77
2019-04-27T07:42:46.114Z,75
2019-04-27T07:43:45.952Z,74
2019-04-27T07:44:45.976Z,74
2019-04-27T07:45:45.989Z,74
2019-04-27T07:46:46.019Z,75
2019-04-27T07:47:46.030Z,73
2019-04-27T07:48:46.059Z,73
2019-04-27T07:49:46.102Z,75
2019-04-27T07:50:46.059Z,76
2019-04-27T07:51:46.069Z,77
2019-04-27T07:52:46.094Z,76
2019-04-27T07:53:46.119Z,76
2019-04-27T07:54:46.143Z,75
2019-04-27T07:55:46.124Z,75
2019-04-27T07:56:46.151Z,74
2019-04-27T07:57:46.162Z,74
2019-04-27T07:58:46.170Z,76
2019-04-27T07:59:46.180Z,74
2019-04-27T08:00:46.220Z,69
2019-04-27T08:01:46.229Z,71
2019-04-27T08:02:46.221Z,72
2019-04-27T08:03:46.216Z,71
2019-04-27T08:04:47.860Z,71
2019-04-27T08:05:46.287Z,70
2019-04-27T08:06:46.265Z,69
2019-04-27T08:07:46.242Z,69
2019-04-27T08:08:49.185Z,71
2019-04-27T08:09:46.237Z,70
2019-04-27T08:10:53.910Z,70
2019-04-27T08:11:46.238Z,67
2019-04-27T08:12:46.258Z,70
2019-04-27T08:13:46.309Z,68
2019-04-27T08:14:46.344Z,67
2019-04-27T08:15:46.432Z,67
2019-04-27T08:16:46.493Z,70
2019-04-27T08:17:46.562Z,68
2019-04-27T08:18:46.558Z,65
2019-04-27T08:19:46.570Z,68
2019-04-27T08:20:46.651Z,66
2019-04-27T08:21:46.715Z,65
2019-04-27T08:22:46.733Z,66
2019-04-27T08:23:46.774Z,67
2019-04-27T08:24:46.845Z,67
2019-04-27T08:25:48.745Z,66
2019-04-27T08:26:47.014Z,67
2019-04-27T08:27:47.014Z,67
2019-04-27T08:28:48.529Z,69
2019-04-27T08:29:48.590Z,67
2019-04-27T08:30:48.751Z,69
2019-04-27T08:31:48.601Z,69
2019-04-27T08:32:49.534Z,69
2019-04-27T08:33:48.624Z,66
2019-04-27T08:34:47.395Z,67
2019-04-27T08:35:48.862Z,68
2019-04-27T08:36:47.442Z,66
2019-04-27T08:37:49.257Z,68
2019-04-27T08:38:48.879Z,68
2019-04-27T08:39:49.386Z,66
2019-04-27T08:40:49.224Z,67
2019-04-27T08:41:49.310Z,62
2019-04-27T08:42:49.157Z,65
2019-04-27T08:43:48.799Z,67
2019-04-27T08:44:49.648Z,66
2019-04-27T08:45:48.770Z,66
2019-04-27T08:46:49.505Z,63
2019-04-27T08:47:49.697Z,63
2019-04-27T08:48:48.978Z,64
2019-04-27T08:49:49.113Z,63
2019-04-27T08:50:48.586Z,60
2019-04-27T08:51:56.993Z,62
2019-04-27T08:52:50.095Z,63
2019-04-27T08:53:49.905Z,63
2019-04-27T08:54:49.094Z,64
2019-04-27T08:55:49.397Z,61
2019-04-27T08:56:49.400Z,63
2019-04-27T08:57:48.853Z,64
2019-04-27T08:58:49.652Z,64
2019-04-27T08:59:48.934Z,64
2019-04-27T09:00:49.037Z,63
2019-04-27T09:01:49.253Z,63
2019-04-27T09:02:50.206Z,59
2019-04-27T09:03:49.494Z,60
2019-04-27T09:04:49.514Z,62
2019-04-27T09:05:49.060Z,64
2019-04-27T09:06:49.325Z,61
2019-04-27T09:07:49.605Z,57
2019-04-27T09:08:49.496Z,59
2019-04-27T09:09:49.766Z,59
2019-04-27T09:10:48.969Z,61
2019-04-27T09:11:49.364Z,63
2019-04-27T09:12:49.747Z,58
2019-04-27T09:13:48.877Z,54
2019-04-27T09:14:49.434Z,56
2019-04-27T09:15:49.415Z,56
2019-04-27T09:16:59.374Z,57
2019-04-27T09:17:48.993Z,55
2019-04-27T09:18:49.800Z,53
2019-04-27T09:19:49.226Z,55
2019-04-27T09:20:49.210Z,55
2019-04-27T09:21:49.078Z,58
2019-04-27T09:22:49.321Z,53
2019-04-27T09:23:49.131Z,57
2019-04-27T09:24:49.449Z,56
2019-04-27T09:25:49.653Z,54
2019-04-27T09:26:49.298Z,56
2019-04-27T09:27:49.405Z,53
2019-04-27T09:28:49.359Z,52
2019-04-27T09:29:49.925Z,49
2019-04-27T09:30:49.757Z,51
2019-04-27T09:31:49.255Z,50
2019-04-27T09:32:49.278Z,54
2019-04-27T09:33:49.276Z,55
2019-04-27T09:34:49.287Z,53
2019-04-27T09:35:50.047Z,52
2019-04-27T09:36:51.627Z,49
2019-04-27T09:37:49.335Z,53
2019-04-27T09:38:52.337Z,55
2019-04-27T09:39:49.333Z,55
2019-04-27T09:40:49.381Z,50
2019-04-27T09:41:49.350Z,48
2019-04-27T09:42:49.365Z,49
2019-04-27T09:43:49.361Z,51
2019-04-27T09:44:49.387Z,52
2019-04-27T09:45:49.365Z,51
2019-04-27T09:46:49.364Z,50
2019-04-27T09:47:49.394Z,50
2019-04-27T09:48:49.463Z,51
2019-04-27T09:49:49.438Z,50
2019-04-27T09:50:49.625Z,52
2019-04-27T09:51:49.526Z,49
2019-04-27T09:52:49.599Z,50
2019-04-27T09:53:49.608Z,49
2019-04-27T09:54:49.689Z,48
2019-04-27T09:55:49.742Z,47
2019-04-27T09:56:49.740Z,47
2019-04-27T09:57:49.820Z,50
2019-04-27T09:58:49.900Z,47
2019-04-27T09:59:49.927Z,46
2019-04-27T10:00:49.932Z,46
2019-04-27T10:01:50.006Z,48
2019-04-27T10:02:50.071Z,50
2019-04-27T10:03:50.116Z,49
2019-04-27T10:04:50.189Z,48
2019-04-27T10:05:50.187Z,50
2019-04-27T10:06:50.264Z,49
2019-04-27T10:07:50.335Z,48
2019-04-27T10:08:50.326Z,49
2019-04-27T10:09:50.383Z,48
2019-04-27T10:10:50.401Z,48
2019-04-27T10:11:50.443Z,48
2019-04-27T10:12:50.484Z,48
2019-04-27T10:13:50.537Z,48
2019-04-27T10:14:50.607Z,45
2019-04-27T10:15:50.634Z,50
2019-04-27T10:16:50.654Z,49
2019-04-27T10:17:50.714Z,49
2019-04-27T10:18:50.757Z,51
2019-04-27T10:19:50.827Z,50
2019-04-27T10:20:59.549Z,51
2019-04-27T10:21:50.919Z,53
2019-04-27T10:22:51.085Z,51
2019-04-27T10:23:51.108Z,49
2019-04-27T10:24:51.064Z,49
2019-04-27T10:25:51.284Z,49
2019-04-27T10:26:51.132Z,49
2019-04-27T10:27:51.158Z,50
2019-04-27T10:28:51.178Z,49
2019-04-27T10:29:51.228Z,46
2019-04-27T10:30:51.277Z,48
2019-04-27T10:31:51.294Z,48
2019-04-27T10:32:51.345Z,48
2019-04-27T10:33:51.386Z,47
2019-04-27T10:34:51.425Z,48
2019-04-27T10:35:51.535Z,45
2019-04-27T10:36:51.465Z,47
2019-04-27T10:37:51.570Z,45
2019-04-27T10:38:51.566Z,47
2019-04-27T10:39:51.578Z,49
2019-04-27T10:40:51.661Z,50
2019-04-27T10:41:51.673Z,49
2019-04-27T10:42:51.692Z,50
2019-04-27T10:43:51.765Z,50
2019-04-27T10:44:51.776Z,48
2019-04-27T10:45:51.793Z,47
2019-04-27T10:46:51.810Z,48
2019-04-27T10:47:51.857Z,46
2019-04-27T10:48:51.895Z,48
2019-04-27T10:49:51.929Z,45
2019-04-27T10:50:51.978Z,50
2019-04-27T10:51:51.992Z,49
2019-04-27T10:52:53.514Z,49
2019-04-27T10:53:52.014Z,46
2019-04-27T10:54:52.058Z,47
2019-04-27T10:55:52.042Z,47
2019-04-27T10:56:52.092Z,49
2019-04-27T10:57:52.101Z,46
2019-04-27T10:58:52.137Z,48
2019-04-27T10:59:52.214Z,45
2019-04-27T11:00:52.133Z,46
2019-04-27T11:01:52.142Z,43
2019-04-27T11:02:52.156Z,45
2019-04-27T11:03:52.187Z,44
2019-04-27T11:04:52.200Z,44
2019-04-27T11:05:52.179Z,47
2019-04-27T11:06:52.256Z,47
2019-04-27T11:07:52.399Z,48
2019-04-27T11:08:52.273Z,45
2019-04-27T11:09:52.251Z,45
2019-04-27T11:10:52.257Z,45
2019-04-27T11:11:52.273Z,45
2019-04-27T11:12:52.312Z,43
2019-04-27T11:13:52.314Z,44
2019-04-27T11:14:52.294Z,44
2019-04-27T11:15:52.290Z,46
2019-04-27T11:16:55.989Z,43
2019-04-27T11:17:52.300Z,44
2019-04-27T11:18:52.300Z,44
2019-04-27T11:19:52.356Z,43
2019-04-27T11:20:52.423Z,43
2019-04-27T11:21:52.449Z,41
2019-04-27T11:22:52.520Z,42
2019-04-27T11:23:52.592Z,43
2019-04-27T11:24:52.619Z,43
2019-04-27T11:25:52.618Z,42
2019-04-27T11:26:52.699Z,45
2019-04-27T11:27:52.750Z,39
2019-04-27T11:28:52.810Z,45
2019-04-27T11:29:52.863Z,40
2019-04-27T11:30:52.978Z,40
2019-04-27T11:31:52.937Z,37
2019-04-27T11:32:54.479Z,37
2019-04-27T11:33:53.009Z,35
2019-04-27T11:34:53.047Z,38
2019-04-27T11:35:53.138Z,36
2019-04-27T11:36:53.213Z,37
2019-04-27T11:37:53.215Z,40
2019-04-27T11:38:53.217Z,37
2019-04-27T11:39:53.267Z,37
2019-04-27T11:40:53.342Z,39
2019-04-27T11:41:53.355Z,38
2019-04-27T11:42:53.379Z,36
2019-04-27T11:43:53.393Z,34
2019-04-27T11:44:56.081Z,36
2019-04-27T11:45:53.442Z,37
2019-04-27T11:46:53.463Z,36
2019-04-27T11:47:53.568Z,35
2019-04-27T11:48:53.568Z,36
2019-04-27T11:49:53.654Z,33
2019-04-27T11:50:53.645Z,30
2019-04-27T11:51:53.653Z,31
2019-04-27T11:52:53.684Z,33
2019-04-27T11:53:53.755Z,34
2019-04-27T11:54:55.515Z,34
2019-04-27T11:55:53.834Z,32
2019-04-27T11:56:55.911Z,34
2019-04-27T11:57:55.796Z,36
2019-04-27T11:58:53.945Z,35
2019-04-27T11:59:58.024Z,35
2019-04-27T12:00:54.127Z,33
2019-04-27T12:01:55.735Z,33
2019-04-27T12:02:54.119Z,36
2019-04-27T12:03:55.604Z,35
2019-04-27T12:04:54.189Z,35
2019-04-27T12:05:54.300Z,34
2019-04-27T12:06:54.253Z,33
2019-04-27T12:07:56.039Z,33
2019-04-27T12:08:54.306Z,35
2019-04-27T12:09:55.518Z,34
2019-04-27T12:10:55.668Z,35
2019-04-27T12:11:55.873Z,34
2019-04-27T12:12:56.166Z,33
2019-04-27T12:13:56.120Z,33
2019-04-27T12:14:56.023Z,33
2019-04-27T12:15:54.588Z,36
2019-04-27T12:16:56.032Z,34
2019-04-27T12:17:56.084Z,35
2019-04-27T12:18:56.209Z,38
2019-04-27T12:19:55.772Z,36
2019-04-27T12:20:55.765Z,37
2019-04-27T12:21:56.333Z,36
2019-04-27T12:22:54.794Z,38
2019-04-27T12:23:54.805Z,40
2019-04-27T12:24:56.138Z,42
2019-04-27T12:25:56.294Z,39
2019-04-27T12:26:55.544Z,40
2019-04-27T12:27:54.905Z,39
2019-04-27T12:28:56.060Z,39
2019-04-27T12:29:55.808Z,39
2019-04-27T12:30:55.094Z,37
2019-04-27T12:31:56.162Z,36
2019-04-27T12:32:55.754Z,38
2019-04-27T12:33:56.003Z,38
2019-04-27T12:34:56.519Z,38
2019-04-27T12:35:56.681Z,39
2019-04-27T12:36:55.129Z,40
2019-04-27T12:37:55.967Z,38
2019-04-27T12:38:56.605Z,38
2019-04-27T12:39:55.441Z,38
2019-04-27T12:40:56.512Z,40
2019-04-27T12:41:56.023Z,39
2019-04-27T12:42:55.359Z,39
2019-04-27T12:43:56.026Z,39
2019-04-27T12:44:55.302Z,39
2019-04-27T12:45:55.893Z,38
2019-04-27T12:46:57.410Z,39
2019-04-27T12:47:56.530Z,39
2019-04-27T12:48:57.145Z,38
2019-04-27T12:49:57.353Z,36
2019-04-27T12:50:56.286Z,36
2019-04-27T12:51:55.846Z,35
2019-04-27T12:52:55.419Z,36
2019-04-27T12:53:55.950Z,35
2019-04-27T12:54:55.457Z,35
2019-04-27T12:55:56.507Z,37
2019-04-27T12:56:55.807Z,37
2019-04-27T12:57:55.460Z,35
2019-04-27T12:58:56.422Z,34
2019-04-27T12:59:56.556Z,35
2019-04-27T13:00:55.493Z,35
2019-04-27T13:01:56.097Z,35
2019-04-27T13:02:57.522Z,36
2019-04-27T13:03:58.537Z,34
2019-04-27T13:04:56.745Z,34
2019-04-27T13:05:55.563Z,33
2019-04-27T13:06:55.894Z,36
2019-04-27T13:07:55.648Z,36
2019-04-27T13:08:55.893Z,37
2019-04-27T13:09:56.355Z,39
2019-04-27T13:10:57.345Z,38
2019-04-27T13:11:56.089Z,39
2019-04-27T13:12:56.213Z,40
2019-04-27T13:13:57.579Z,41
2019-04-27T13:14:56.056Z,39
2019-04-27T13:15:56.370Z,38
2019-04-27T13:16:56.210Z,38
2019-04-27T13:17:57.376Z,40
2019-04-27T13:18:57.492Z,40
2019-04-27T13:19:56.253Z,38
2019-04-27T13:20:56.283Z,38
2019-04-27T13:21:56.347Z,36
2019-04-27T13:22:56.420Z,37
2019-04-27T13:24:03.840Z,39
2019-04-27T13:24:56.711Z,40
2019-04-27T13:25:56.574Z,38
2019-04-27T13:26:56.618Z,36
2019-04-27T13:27:56.804Z,38
2019-04-27T13:28:58.277Z,40
2019-04-27T13:29:57.390Z,42
2019-04-27T13:30:56.719Z,41
2019-04-27T13:31:57.683Z,41
2019-04-27T13:32:56.865Z,40
2019-04-27T13:33:56.787Z,41
2019-04-27T13:34:56.856Z,42
2019-04-27T13:35:56.898Z,40
2019-04-27T13:36:56.935Z,40
2019-04-27T13:37:56.987Z,39
2019-04-27T13:38:57.009Z,40
2019-04-27T13:40:04.602Z,42
2019-04-27T13:40:57.126Z,43
2019-04-27T13:41:57.160Z,44
2019-04-27T13:42:57.602Z,44
2019-04-27T13:43:57.430Z,41
2019-04-27T13:45:05.974Z,42
2019-04-27T13:45:57.909Z,44
2019-04-27T13:46:57.355Z,45
2019-04-27T13:47:57.402Z,44
2019-04-27T13:48:57.429Z,43
2019-04-27T13:50:06.311Z,44
2019-04-27T13:50:57.533Z,44
2019-04-27T13:51:57.626Z,45
2019-04-27T13:52:57.560Z,46
2019-04-27T13:53:57.596Z,49
2019-04-27T13:54:57.641Z,52
2019-04-27T13:55:57.684Z,53
2019-04-27T13:56:57.709Z,56
2019-04-27T13:57:57.765Z,58
2019-04-27T13:58:58.383Z,58
2019-04-27T13:59:57.796Z,59
2019-04-27T14:00:57.849Z,58
2019-04-27T14:01:57.870Z,59
2019-04-27T14:02:57.897Z,60
2019-04-27T14:03:57.928Z,61
2019-04-27T14:04:57.969Z,61
2019-04-27T14:05:59.006Z,62
2019-04-27T14:06:58.975Z,61
2019-04-27T14:07:59.134Z,63
2019-04-27T14:08:58.823Z,64
2019-04-27T14:09:59.866Z,63
2019-04-27T14:10:58.755Z,64
2019-04-27T14:11:58.169Z,64
2019-04-27T14:12:59.044Z,64
2019-04-27T14:13:58.203Z,64
2019-04-27T14:14:59.061Z,65
2019-04-27T14:15:58.235Z,66